createdAt,value
2022-10-07T00:01:09.979Z,4.22
2022-10-07T00:03:38.272Z,7.40
2022-10-07T00:06:11.768Z,6.22
2022-10-07T00:11:11.431Z,4.88
2022-10-07T00:13:41.485Z,11.52
2022-10-07T00:16:13.380Z,9.55
2022-10-07T00:18:44.346Z,4.78
2022-10-07T00:21:15.968Z,10.15
2022-10-07T00:23:45.478Z,7.43
2022-10-07T00:26:16.185Z,6.07
2022-10-07T00:28:44.814Z,8.82
2022-10-07T00:31:16.702Z,7.18
2022-10-07T00:33:45.381Z,9.80
2022-10-07T00:36:19.548Z,15.75
2022-10-07T00:38:51.831Z,3.70
2022-10-07T00:41:22.679Z,8.15
2022-10-07T00:43:51.106Z,7.38
2022-10-07T00:46:29.407Z,9.15
2022-10-07T00:48:59.875Z,10.68
2022-10-07T00:51:29.783Z,11.43
2022-10-07T00:53:57.977Z,12.23
2022-10-07T00:56:27.913Z,7.45
2022-10-07T00:58:56.467Z,5.40
2022-10-07T01:07:32.142Z,7.47
2022-10-07T01:10:01.571Z,6.47
2022-10-07T01:12:36.027Z,11.73
2022-10-07T01:15:16.211Z,9.85
2022-10-07T01:17:50.064Z,9.07
2022-10-07T01:20:26.541Z,7.47
2022-10-07T01:23:11.768Z,9.20
2022-10-07T01:25:56.102Z,7.70
2022-10-07T01:28:32.388Z,9.48
2022-10-07T01:31:05.140Z,6.35
2022-10-07T01:33:35.785Z,9.88
2022-10-07T01:36:09.307Z,10.52
2022-10-07T01:38:43.120Z,5.20
2022-10-07T01:41:15.533Z,7.93
2022-10-07T01:43:49.455Z,4.15
2022-10-07T01:46:22.108Z,7.05
2022-10-07T01:48:51.926Z,6.55
2022-10-07T01:51:23.846Z,8.60
2022-10-07T01:54:02.465Z,5.60
2022-10-07T01:56:46.716Z,8.20
2022-10-07T01:59:39.343Z,9.85
2022-10-07T02:02:20.271Z,5.13
2022-10-07T02:04:59.340Z,6.38
2022-10-07T02:07:38.762Z,6.38
2022-10-07T02:10:16.718Z,11.75
2022-10-07T02:12:52.001Z,6.78
2022-10-07T02:15:26.824Z,8.13
2022-10-07T02:17:58.019Z,6.68
2022-10-07T02:20:31.013Z,7.82
2022-10-07T02:23:02.604Z,5.50
2022-10-07T02:25:36.131Z,7.00
2022-10-07T02:30:38.962Z,9.10
2022-10-07T02:33:10.314Z,10.45
2022-10-07T02:35:45.104Z,12.18
2022-10-07T02:38:16.127Z,10.95
2022-10-07T02:40:59.856Z,5.65
2022-10-07T02:43:31.973Z,7.07
2022-10-07T02:46:08.112Z,11.18
2022-10-07T02:48:42.102Z,7.50
2022-10-07T02:53:43.273Z,7.22
2022-10-07T02:56:13.941Z,6.57
2022-10-07T02:58:45.906Z,5.10
2022-10-07T03:01:21.367Z,13.70
2022-10-07T03:03:52.280Z,7.07
2022-10-07T03:06:20.400Z,9.52
2022-10-07T03:08:48.884Z,13.77
2022-10-07T03:11:17.610Z,10.10
2022-10-07T03:13:45.765Z,10.65
2022-10-07T03:16:13.749Z,7.43
2022-10-07T03:18:43.019Z,7.32
2022-10-07T03:21:27.223Z,7.60
2022-10-07T03:23:57.221Z,7.88
2022-10-07T03:26:31.268Z,9.90
2022-10-07T03:28:59.665Z,6.45
2022-10-07T03:31:28.639Z,11.80
2022-10-07T03:34:03.547Z,11.88
2022-10-07T03:36:37.059Z,7.90
2022-10-07T03:39:06.858Z,10.02
2022-10-07T03:41:34.809Z,8.93
2022-10-07T03:44:04.001Z,7.28
2022-10-07T03:46:32.068Z,8.98
2022-10-07T03:49:03.422Z,6.60
2022-10-07T03:51:31.943Z,13.00
2022-10-07T03:54:01.222Z,11.82
2022-10-07T03:56:32.792Z,8.27
2022-10-07T03:59:02.002Z,8.55
2022-10-07T04:01:32.863Z,10.57
2022-10-07T04:04:03.589Z,10.07
2022-10-07T04:06:36.693Z,12.35
2022-10-07T04:09:10.858Z,17.55
2022-10-07T04:11:40.743Z,6.22
2022-10-07T04:14:12.028Z,9.52
2022-10-07T04:16:41.959Z,10.18
2022-10-07T04:19:14.247Z,14.75
2022-10-07T04:21:44.099Z,10.57
2022-10-07T04:24:12.778Z,8.40
2022-10-07T04:26:40.453Z,5.95
2022-10-07T04:29:08.584Z,8.48
2022-10-07T04:31:37.548Z,10.10
2022-10-07T04:34:06.756Z,12.43
2022-10-07T04:36:40.962Z,9.37
2022-10-07T04:39:13.508Z,8.40
2022-10-07T04:41:47.897Z,6.90
2022-10-07T04:44:20.909Z,8.18
2022-10-07T04:46:56.875Z,9.25
2022-10-07T04:49:27.947Z,5.73
2022-10-07T04:51:58.881Z,15.73
2022-10-07T04:54:32.652Z,20.60
2022-10-07T04:57:00.676Z,27.15
2022-10-07T04:59:30.165Z,10.40
2022-10-07T05:01:59.455Z,11.68
2022-10-07T05:04:29.044Z,10.52
2022-10-07T05:07:00.168Z,12.35
2022-10-07T05:09:30.019Z,16.88
2022-10-07T05:11:58.437Z,7.07
2022-10-07T05:14:26.224Z,10.60
2022-10-07T05:16:56.483Z,7.03
2022-10-07T05:19:28.415Z,9.70
2022-10-07T05:21:56.542Z,11.95
2022-10-07T05:24:28.633Z,10.93
2022-10-07T05:26:56.853Z,7.82
2022-10-07T05:29:25.076Z,9.25
2022-10-07T05:31:54.907Z,10.10
2022-10-07T05:34:26.230Z,8.50
2022-10-07T05:36:55.609Z,6.07
2022-10-07T05:39:24.210Z,7.28
2022-10-07T05:42:13.737Z,7.40
2022-10-07T05:44:48.870Z,10.73
2022-10-07T05:47:18.507Z,7.25
2022-10-07T05:49:46.748Z,10.05
2022-10-07T05:52:15.198Z,8.00
2022-10-07T05:54:46.083Z,7.97
2022-10-07T05:57:16.593Z,14.27
2022-10-07T05:59:44.802Z,8.55
2022-10-07T06:02:15.719Z,14.35
2022-10-07T06:04:45.291Z,9.13
2022-10-07T06:07:18.217Z,7.65
2022-10-07T06:10:06.328Z,7.82
2022-10-07T06:12:56.101Z,7.03
2022-10-07T06:15:26.059Z,7.32
2022-10-07T06:17:54.153Z,9.27
2022-10-07T06:20:22.954Z,9.90
2022-10-07T06:22:54.723Z,10.65
2022-10-07T06:25:22.951Z,7.93
2022-10-07T06:27:54.383Z,11.65
2022-10-07T06:30:25.781Z,10.40
2022-10-07T06:32:54.595Z,8.68
2022-10-07T06:35:23.035Z,9.50
2022-10-07T06:37:52.246Z,6.22
2022-10-07T06:40:20.361Z,7.45
2022-10-07T06:42:48.307Z,7.75
2022-10-07T06:45:25.500Z,6.55
2022-10-07T06:47:54.776Z,7.55
2022-10-07T06:50:24.074Z,6.78
2022-10-07T06:52:52.903Z,5.60
2022-10-07T06:55:21.563Z,10.07
2022-10-07T06:57:49.391Z,6.85
2022-10-07T07:00:20.380Z,9.57
2022-10-07T07:02:50.794Z,10.52
2022-10-07T07:05:19.184Z,9.10
2022-10-07T07:07:49.313Z,10.93
2022-10-07T07:10:18.017Z,8.30
2022-10-07T07:12:49.836Z,6.20
2022-10-07T07:15:18.528Z,6.93
2022-10-07T07:17:47.082Z,6.50
2022-10-07T07:20:19.567Z,4.38
2022-10-07T07:22:49.571Z,6.07
2022-10-07T07:25:17.966Z,4.15
2022-10-07T07:27:48.741Z,7.05
2022-10-07T07:30:23.112Z,8.23
2022-10-07T07:32:52.718Z,6.68
2022-10-07T07:35:22.385Z,5.72
2022-10-07T07:37:50.690Z,5.90
2022-10-07T07:40:20.222Z,6.22
2022-10-07T07:42:51.412Z,3.78
2022-10-07T07:45:20.471Z,7.47
2022-10-07T07:47:50.545Z,5.57
2022-10-07T07:50:27.115Z,8.02
2022-10-07T07:53:00.163Z,6.07
2022-10-07T07:55:28.431Z,6.32
2022-10-07T07:57:56.641Z,8.80
2022-10-07T08:00:24.692Z,6.63
2022-10-07T08:03:01.948Z,6.35
2022-10-07T08:05:30.192Z,9.00
2022-10-07T08:08:01.920Z,6.95
2022-10-07T08:10:30.406Z,7.93
2022-10-07T08:12:58.531Z,6.82
2022-10-07T08:15:26.684Z,7.03
2022-10-07T08:17:55.118Z,5.07
2022-10-07T08:20:23.693Z,5.05
2022-10-07T08:22:58.200Z,6.53
2022-10-07T08:25:29.537Z,5.85
2022-10-07T08:27:59.250Z,8.15
2022-10-07T08:30:28.253Z,7.43
2022-10-07T08:33:01.030Z,5.20
2022-10-07T08:35:29.403Z,5.38
2022-10-07T08:37:57.258Z,3.90
2022-10-07T08:43:27.936Z,4.43
2022-10-07T08:46:01.642Z,6.30
2022-10-07T08:48:39.596Z,4.85
2022-10-07T08:58:07.152Z,4.00
2022-10-07T09:00:47.718Z,4.35
2022-10-07T09:03:38.452Z,7.32
2022-10-07T09:06:34.138Z,2.75
2022-10-07T09:12:00.669Z,3.70
2022-10-07T09:14:36.139Z,6.78
2022-10-07T09:17:38.669Z,4.47
2022-10-07T09:20:30.610Z,2.88
2022-10-07T09:23:08.349Z,5.35
2022-10-07T09:25:37.296Z,3.90
2022-10-07T09:28:05.598Z,4.72
2022-10-07T09:30:40.575Z,3.75
2022-10-07T09:33:18.109Z,4.03
2022-10-07T09:35:57.660Z,7.90
2022-10-07T09:38:39.207Z,2.67
2022-10-07T09:44:15.224Z,3.72
2022-10-07T09:47:04.156Z,8.02
2022-10-07T09:49:43.736Z,6.35
2022-10-07T09:56:01.245Z,5.00
2022-10-07T09:58:53.891Z,4.03
2022-10-07T10:01:43.515Z,3.78
2022-10-07T10:04:19.489Z,3.75
2022-10-07T10:06:51.967Z,4.72
2022-10-07T10:09:27.062Z,3.20
2022-10-07T10:12:07.987Z,2.85
2022-10-07T10:14:45.957Z,3.85
2022-10-07T10:17:39.908Z,5.75
2022-10-07T10:20:33.971Z,7.15
2022-10-07T10:26:15.108Z,6.43
2022-10-07T10:28:55.053Z,3.42
2022-10-07T10:31:46.282Z,5.75
2022-10-07T10:34:39.321Z,5.72
2022-10-07T10:37:20.693Z,7.80
2022-10-07T10:40:07.652Z,5.03
2022-10-07T10:42:48.638Z,3.80
2022-10-07T10:45:44.971Z,2.80
2022-10-07T10:48:32.150Z,4.50
2022-10-07T10:52:03.914Z,3.83
2022-10-07T10:54:50.199Z,3.83
2022-10-07T10:57:37.597Z,5.63
2022-10-07T11:00:59.810Z,3.70
2022-10-07T11:03:41.843Z,5.03
2022-10-07T11:06:16.590Z,6.00
2022-10-07T11:08:51.620Z,6.00
2022-10-07T11:14:43.872Z,4.20
2022-10-07T11:21:39.979Z,2.60
2022-10-07T11:24:30.101Z,3.40
2022-10-07T11:27:18.857Z,4.85
2022-10-07T11:33:13.456Z,4.57
2022-10-07T11:36:04.304Z,2.30
2022-10-07T11:39:01.550Z,3.45
2022-10-07T11:41:47.259Z,2.33
2022-10-07T11:57:33.138Z,2.72
2022-10-07T12:00:09.138Z,2.67
2022-10-07T12:02:53.848Z,2.28
2022-10-07T12:29:39.968Z,5.85
2022-10-07T12:32:59.962Z,7.15
2022-10-07T12:46:11.394Z,11.57
2022-10-07T12:51:43.172Z,4.28
2022-10-07T12:54:21.125Z,3.85
2022-10-07T12:56:53.922Z,3.17
2022-10-07T13:00:08.152Z,4.15
2022-10-07T13:07:28.451Z,5.68
2022-10-07T13:10:47.819Z,9.43
2022-10-07T13:13:27.112Z,2.85
2022-10-07T13:16:09.954Z,4.65
2022-10-07T13:18:48.160Z,3.97
2022-10-07T13:21:27.063Z,4.20
2022-10-07T13:23:57.713Z,2.45
2022-10-07T13:26:39.139Z,2.08
2022-10-07T13:29:31.289Z,2.35
2022-10-07T13:35:39.776Z,3.85
2022-10-07T13:38:34.274Z,3.00
2022-10-07T13:44:46.522Z,2.83
2022-10-07T13:47:38.155Z,3.20
2022-10-07T13:50:12.214Z,3.97
2022-10-07T13:55:49.769Z,4.60
2022-10-07T14:04:37.881Z,4.03
2022-10-07T14:07:35.837Z,3.22
2022-10-07T14:25:34.015Z,5.50
2022-10-07T14:28:34.176Z,5.35
2022-10-07T14:35:11.399Z,2.63
2022-10-07T14:40:52.317Z,2.97
2022-10-07T14:43:38.003Z,2.70
2022-10-07T14:52:17.180Z,4.22
2022-10-07T14:58:06.322Z,4.15
2022-10-07T15:03:24.206Z,2.63
2022-10-07T15:06:01.145Z,2.85
2022-10-07T15:08:36.293Z,4.20
2022-10-07T15:11:18.629Z,3.40
2022-10-07T15:13:54.550Z,3.28
2022-10-07T15:16:50.486Z,4.35
2022-10-07T15:22:20.073Z,2.83
2022-10-07T15:25:13.149Z,5.85
2022-10-07T15:27:53.096Z,3.58
2022-10-07T15:33:12.784Z,5.88
2022-10-07T15:35:45.573Z,3.78
2022-10-07T15:38:15.873Z,3.67
2022-10-07T15:41:10.987Z,4.60
2022-10-07T15:43:44.413Z,6.00
2022-10-07T15:46:17.359Z,7.10
2022-10-07T15:48:49.161Z,3.35
2022-10-07T15:51:20.045Z,4.18
2022-10-07T15:54:12.862Z,5.20
2022-10-07T15:56:58.608Z,3.22
2022-10-07T15:59:28.264Z,5.95
2022-10-07T16:02:03.111Z,5.50
2022-10-07T16:04:33.873Z,5.65
2022-10-07T16:07:09.103Z,6.73
2022-10-07T16:13:18.492Z,4.30
2022-10-07T16:19:31.969Z,3.13
2022-10-07T16:22:05.982Z,3.78
2022-10-07T16:24:37.640Z,5.88
2022-10-07T16:27:12.076Z,6.47
2022-10-07T16:30:00.013Z,3.05
2022-10-07T16:32:49.019Z,5.35
2022-10-07T16:35:39.841Z,3.03
2022-10-07T16:38:16.113Z,4.72
2022-10-07T16:41:12.032Z,5.40
2022-10-07T16:44:00.066Z,3.20
2022-10-07T16:46:33.437Z,5.13
2022-10-07T16:52:29.389Z,4.03
2022-10-07T16:58:04.882Z,14.18
2022-10-07T17:15:25.865Z,8.82
2022-10-07T17:17:55.872Z,9.48
2022-10-07T17:20:24.944Z,13.35
2022-10-07T17:22:53.090Z,15.68
2022-10-07T17:25:20.955Z,12.63
2022-10-07T17:27:49.327Z,11.98
2022-10-07T17:30:17.788Z,6.93
2022-10-07T17:32:50.778Z,9.75
2022-10-07T17:35:18.710Z,9.00
2022-10-07T17:37:46.887Z,9.32
2022-10-07T17:40:15.598Z,6.50
2022-10-07T17:42:44.842Z,7.20
2022-10-07T17:45:12.794Z,4.78
2022-10-07T17:47:40.779Z,4.55
2022-10-07T17:50:10.806Z,7.78
2022-10-07T17:52:38.627Z,7.55
2022-10-07T17:55:08.029Z,8.68
2022-10-07T17:57:35.945Z,7.40
2022-10-07T18:00:06.239Z,8.23
2022-10-07T18:02:40.012Z,4.78
2022-10-07T18:05:11.097Z,7.55
2022-10-07T18:07:39.467Z,4.80
2022-10-07T18:10:08.261Z,5.22
2022-10-07T18:12:54.178Z,5.93
2022-10-07T18:15:23.341Z,10.27
2022-10-07T18:17:56.433Z,9.55
2022-10-07T18:20:28.169Z,5.63
2022-10-07T18:22:57.348Z,6.93
2022-10-07T18:25:25.658Z,5.65
2022-10-07T18:27:54.524Z,7.85
2022-10-07T18:30:22.454Z,6.32
2022-10-07T18:32:51.635Z,10.40
2022-10-07T18:35:19.583Z,8.25
2022-10-07T18:37:49.530Z,10.93
2022-10-07T18:40:17.456Z,11.75
2022-10-07T18:42:45.504Z,10.88
2022-10-07T18:45:13.411Z,12.48
2022-10-07T18:47:41.859Z,9.52
2022-10-07T18:50:11.068Z,9.90
2022-10-07T18:52:39.450Z,10.18
2022-10-07T18:55:09.981Z,13.30
2022-10-07T18:57:38.261Z,9.90
2022-10-07T19:00:07.698Z,8.15
2022-10-07T19:02:35.679Z,8.63
2022-10-07T19:05:04.029Z,8.00
2022-10-07T19:07:33.255Z,8.35
2022-10-07T19:10:01.759Z,8.10
2022-10-07T19:12:49.161Z,7.00
2022-10-07T19:15:19.002Z,14.18
2022-10-07T19:17:47.879Z,7.60
2022-10-07T19:20:18.411Z,9.23
2022-10-07T19:22:48.725Z,7.93
2022-10-07T19:25:36.088Z,9.02
2022-10-07T19:28:06.557Z,11.13
2022-10-07T19:30:34.976Z,9.57
2022-10-07T22:44:12.990Z,14.70
2022-10-07T22:46:41.028Z,13.85
2022-10-07T22:49:09.536Z,14.27
2022-10-07T22:51:37.994Z,16.42
2022-10-07T22:54:08.005Z,15.90
2022-10-07T22:56:36.049Z,12.48
2022-10-07T22:59:04.166Z,12.48
2022-10-07T23:01:33.472Z,13.05
2022-10-07T23:04:03.162Z,13.27
2022-10-07T23:06:33.035Z,15.35
2022-10-07T23:09:01.764Z,11.95
2022-10-07T23:11:31.734Z,15.13
2022-10-07T23:14:00.108Z,11.25
2022-10-07T23:16:29.771Z,16.45
2022-10-07T23:19:00.039Z,14.23
2022-10-07T23:21:29.402Z,16.75
2022-10-07T23:24:06.026Z,16.98
2022-10-07T23:26:35.459Z,12.90
2022-10-07T23:29:03.972Z,15.82
2022-10-07T23:31:33.397Z,14.98
2022-10-07T23:34:03.176Z,14.07
2022-10-07T23:36:31.875Z,13.30
2022-10-07T23:39:01.362Z,15.30
2022-10-07T23:41:30.869Z,12.50
2022-10-07T23:44:00.456Z,14.63
2022-10-07T23:46:31.182Z,11.45
2022-10-07T23:49:00.541Z,17.90
2022-10-07T23:51:32.339Z,10.88
2022-10-07T23:54:02.132Z,17.13
2022-10-07T23:56:31.275Z,12.00
2022-10-07T23:59:00.732Z,11.70
